Time;durP1;ratioP1;P1;durP2;ratioP2;P2;SDS_P1;SDS_P2;PMS_P1;PMS_P2;Temp;Humidity;BMP_temperature;BMP_pressure;BME280_temperature;BME280_humidity;BME280_pressure;Samples;Min_cycle;Max_cycle;Signal;HPM_P1;HPM_P2
2023/06/07 00:06:48;;;;;;;5.70;3.00;;;13.70;1.00;;;;;;20800818;28;20314;-40
2023/06/07 00:17:10;;;;;;;8.20;3.03;;;13.60;1.00;;;;;;20803024;28;20229;-40
2023/06/07 00:27:31;;;;;;;7.03;3.58;;;13.50;1.00;;;;;;20800542;28;20108;-40
2023/06/07 00:37:53;;;;;;;7.47;2.55;;;13.40;1.00;;;;;;20804577;28;20041;-41
2023/06/07 00:48:14;;;;;;;4.95;3.25;;;13.30;1.00;;;;;;20802880;28;20237;-40
2023/06/07 00:58:37;;;;;;;6.78;2.55;;;13.10;1.00;;;;;;20808993;28;20068;-40
2023/06/07 01:08:59;;;;;;;5.50;2.58;;;13.00;1.00;;;;;;20807909;28;20033;-40
2023/06/07 01:19:22;;;;;;;6.50;2.58;;;12.90;1.00;;;;;;20808100;28;20388;-41
2023/06/07 01:29:44;;;;;;;5.63;2.60;;;12.90;1.00;;;;;;20808182;28;20159;-41
2023/06/07 01:40:08;;;;;;;8.82;3.28;;;12.80;1.00;;;;;;20812871;28;20437;-40
2023/06/07 01:50:29;;;;;;;7.07;2.53;;;12.80;1.00;;;;;;20815934;28;20071;-41
2023/06/07 02:00:53;;;;;;;9.57;4.47;;;12.70;1.00;;;;;;20817719;28;20484;-41
2023/06/07 02:11:16;;;;;;;7.20;2.90;;;12.60;1.00;;;;;;20812486;28;20076;-40
2023/06/07 02:21:38;;;;;;;10.05;2.58;;;12.40;1.00;;;;;;20819851;28;20135;-40
2023/06/07 02:32:00;;;;;;;11.13;3.10;;;12.50;1.00;;;;;;20809733;28;20053;-41
2023/06/07 02:42:21;;;;;;;4.68;2.58;;;12.40;1.00;;;;;;20814368;28;20128;-41
2023/06/07 02:52:44;;;;;;;6.25;2.00;;;12.40;1.00;;;;;;20808954;28;20515;-41
2023/06/07 03:03:06;;;;;;;9.75;3.05;;;12.30;1.00;;;;;;20805993;28;20045;-40
2023/06/07 03:13:27;;;;;;;8.27;2.25;;;12.30;1.00;;;;;;20820103;28;20076;-41
2023/06/07 03:23:48;;;;;;;6.85;2.88;;;12.30;1.00;;;;;;20810483;28;20218;-40
2023/06/07 03:34:10;;;;;;;7.03;1.55;;;12.20;1.00;;;;;;20807678;28;20482;-40
2023/06/07 03:44:31;;;;;;;8.02;2.63;;;12.10;1.00;;;;;;20810423;28;20512;-41
2023/06/07 03:54:52;;;;;;;10.25;2.10;;;12.30;1.00;;;;;;20812013;28;20104;-41
2023/06/07 04:05:14;;;;;;;4.22;2.10;;;12.20;1.00;;;;;;20804002;28;20061;-40
2023/06/07 04:15:35;;;;;;;6.97;3.03;;;12.20;1.00;;;;;;20814057;28;20148;-41
2023/06/07 04:25:58;;;;;;;6.32;2.38;;;12.20;1.00;;;;;;20799555;28;20199;-40
2023/06/07 04:36:19;;;;;;;6.38;2.67;;;12.30;1.00;;;;;;20804922;28;20493;-41
2023/06/07 04:46:40;;;;;;;5.15;2.58;;;12.30;1.00;;;;;;20821212;28;20095;-40
2023/06/07 04:57:02;;;;;;;10.32;3.75;;;12.30;1.00;;;;;;20811389;28;20171;-40
2023/06/07 05:07:26;;;;;;;8.75;3.40;;;12.60;1.00;;;;;;20803939;28;20247;-40
2023/06/07 05:17:49;;;;;;;18.27;3.95;;;12.70;1.00;;;;;;20815739;28;20345;-41
2023/06/07 05:28:11;;;;;;;4.75;2.47;;;12.90;1.00;;;;;;20793577;28;20264;-41
2023/06/07 05:38:32;;;;;;;6.47;2.08;;;13.00;1.00;;;;;;20802265;28;20258;-41
2023/06/07 05:48:54;;;;;;;5.70;2.20;;;13.20;1.00;;;;;;20807129;28;20080;-40
2023/06/07 05:59:15;;;;;;;5.55;2.75;;;13.50;1.00;;;;;;20797127;28;20787;-40
2023/06/07 06:09:36;;;;;;;4.68;1.70;;;13.50;1.00;;;;;;20800000;28;20289;-40
2023/06/07 06:19:58;;;;;;;8.18;2.58;;;13.20;1.00;;;;;;20809348;28;20068;-40
2023/06/07 06:30:20;;;;;;;5.07;2.15;;;12.90;1.00;;;;;;20797381;28;20095;-41
2023/06/07 06:40:42;;;;;;;3.85;1.85;;;12.90;1.00;;;;;;20817010;28;20190;-41
2023/06/07 06:51:03;;;;;;;7.47;2.78;;;12.90;1.00;;;;;;20811982;28;20458;-41
2023/06/07 07:01:41;;;;;;;5.43;2.25;;;13.20;1.00;;;;;;20808834;28;20492;-41
2023/06/07 07:12:02;;;;;;;7.40;2.72;;;13.60;1.00;;;;;;20818001;28;20792;-41
2023/06/07 07:22:24;;;;;;;11.93;2.95;;;14.00;1.00;;;;;;20802177;28;20060;-40
2023/06/07 07:32:46;;;;;;;4.80;2.00;;;14.20;1.00;;;;;;20804390;28;20159;-41
2023/06/07 07:43:09;;;;;;;6.53;2.10;;;14.50;1.00;;;;;;20804308;28;20079;-41
2023/06/07 07:53:31;;;;;;;3.95;2.00;;;14.50;1.00;;;;;;20808672;28;20125;-40
2023/06/07 08:03:52;;;;;;;4.63;2.05;;;14.70;1.00;;;;;;20799635;28;20119;-41
2023/06/07 08:14:14;;;;;;;3.53;1.73;;;14.90;1.00;;;;;;20818781;28;20435;-41
2023/06/07 08:24:36;;;;;;;6.68;1.77;;;15.10;1.00;;;;;;20792349;28;20488;-41
2023/06/07 08:34:57;;;;;;;5.85;1.83;;;15.40;1.00;;;;;;20812224;28;20128;-41
2023/06/07 08:45:20;;;;;;;4.93;1.92;;;15.70;1.00;;;;;;20805205;28;22710;-41
2023/06/07 08:55:42;;;;;;;8.32;2.20;;;15.90;1.00;;;;;;20791324;28;20069;-41
2023/06/07 09:06:03;;;;;;;8.63;2.53;;;16.10;1.00;;;;;;20744599;28;20041;-41
2023/06/07 09:16:25;;;;;;;5.15;1.67;;;16.20;1.00;;;;;;20791947;28;20064;-41
2023/06/07 09:26:46;;;;;;;6.65;1.40;;;16.70;1.00;;;;;;20773910;28;20475;-41
2023/06/07 09:37:08;;;;;;;5.35;1.52;;;17.00;1.00;;;;;;20783366;28;20511;-41
2023/06/07 09:47:30;;;;;;;4.20;1.45;;;17.50;1.00;;;;;;20783181;28;20260;-41
2023/06/07 09:57:51;;;;;;;5.13;2.05;;;17.70;1.00;;;;;;20787399;28;20536;-41
2023/06/07 10:08:13;;;;;;;8.52;3.15;;;17.80;1.00;;;;;;20793078;28;20271;-39
2023/06/07 10:18:37;;;;;;;4.80;1.50;;;18.50;1.00;;;;;;20811791;28;20068;-39
2023/06/07 10:29:10;;;;;;;6.88;1.80;;;18.70;1.00;;;;;;20812866;28;20080;-38
2023/06/07 10:39:32;;;;;;;7.80;3.03;;;18.70;1.00;;;;;;20772027;28;20140;-39
2023/06/07 10:49:53;;;;;;;5.15;2.03;;;18.90;1.00;;;;;;20803821;28;20056;-39
2023/06/07 11:00:29;;;;;;;5.57;1.65;;;18.90;1.00;;;;;;20780926;28;20065;-39
2023/06/07 11:10:51;;;;;;;5.40;1.45;;;19.10;1.00;;;;;;20792740;28;20139;-39
2023/06/07 11:21:12;;;;;;;5.70;2.10;;;19.30;1.00;;;;;;20781918;28;20055;-39
2023/06/07 11:31:34;;;;;;;7.82;2.55;;;19.40;1.00;;;;;;20819665;28;20037;-40
2023/06/07 11:41:57;;;;;;;6.18;2.50;;;19.80;1.00;;;;;;20791225;28;20068;-40
2023/06/07 11:52:19;;;;;;;5.28;1.92;;;19.90;1.00;;;;;;20780868;28;20365;-40
2023/06/07 12:02:42;;;;;;;5.50;2.88;;;19.90;1.00;;;;;;20775627;28;20851;-40
2023/06/07 12:13:14;;;;;;;4.88;2.28;;;19.90;1.00;;;;;;20787861;28;20384;-41
2023/06/07 12:23:37;;;;;;;8.02;2.20;;;20.00;1.00;;;;;;20789410;28;20116;-38
2023/06/07 12:34:06;;;;;;;5.10;2.03;;;20.60;1.00;;;;;;20798521;28;20465;-40
2023/06/07 12:44:27;;;;;;;5.88;2.40;;;20.80;1.00;;;;;;20793435;28;20343;-40
2023/06/07 12:54:49;;;;;;;11.13;2.65;;;20.60;1.00;;;;;;20790652;28;20068;-40
2023/06/07 13:05:12;;;;;;;3.75;1.98;;;20.80;1.00;;;;;;20808462;28;20496;-40
2023/06/07 13:15:34;;;;;;;13.77;2.28;;;21.10;1.00;;;;;;20808706;28;20229;-40
2023/06/07 13:25:55;;;;;;;6.30;2.53;;;21.20;1.00;;;;;;20803286;28;20441;-40
2023/06/07 13:36:17;;;;;;;7.28;2.30;;;21.30;1.00;;;;;;20803642;28;20067;-40
2023/06/07 13:46:38;;;;;;;6.45;2.15;;;21.20;1.00;;;;;;20819610;28;21336;-41
2023/06/07 13:57:00;;;;;;;6.88;2.05;;;21.10;1.00;;;;;;20823881;28;20033;-40
2023/06/07 14:07:22;;;;;;;3.80;2.00;;;21.40;1.00;;;;;;20822604;28;20064;-40
2023/06/07 14:17:43;;;;;;;4.68;2.05;;;21.50;1.00;;;;;;20819457;28;20072;-40
2023/06/07 14:28:04;;;;;;;6.80;2.30;;;21.20;1.00;;;;;;20822983;28;20519;-40
2023/06/07 14:38:26;;;;;;;5.10;1.90;;;21.10;1.00;;;;;;20817452;28;20392;-40
2023/06/07 14:48:47;;;;;;;6.90;2.55;;;20.80;1.00;;;;;;20807853;28;20056;-40
2023/06/07 14:59:11;;;;;;;8.30;2.85;;;20.80;1.00;;;;;;20800558;28;20037;-40
2023/06/07 15:09:33;;;;;;;5.30;2.05;;;20.70;1.00;;;;;;20821141;28;20584;-40
2023/06/07 15:19:54;;;;;;;7.65;2.50;;;20.60;1.00;;;;;;20813460;28;20033;-40
2023/06/07 15:30:15;;;;;;;6.00;2.97;;;20.60;1.00;;;;;;20774388;28;20479;-39
2023/06/07 15:40:37;;;;;;;6.22;2.60;;;20.60;1.00;;;;;;20810031;28;20461;-40
2023/06/07 15:50:58;;;;;;;6.97;2.33;;;20.40;1.00;;;;;;20802170;28;20064;-39
2023/06/07 16:01:19;;;;;;;5.43;2.40;;;20.40;1.00;;;;;;20810181;28;20122;-39
2023/06/07 16:11:41;;;;;;;7.45;2.80;;;20.30;1.00;;;;;;20784403;28;20037;-39
2023/06/07 16:22:04;;;;;;;6.20;2.30;;;20.20;1.00;;;;;;20818861;28;20048;-39
2023/06/07 16:32:25;;;;;;;5.88;2.10;;;20.00;1.00;;;;;;20820598;28;20413;-40
2023/06/07 16:42:47;;;;;;;5.15;2.45;;;19.90;1.00;;;;;;20830239;28;20065;-40
2023/06/07 16:53:08;;;;;;;6.55;3.08;;;19.70;1.00;;;;;;20782363;28;20048;-40
2023/06/07 17:03:30;;;;;;;5.78;2.75;;;19.70;1.00;;;;;;20815885;28;20335;-39
2023/06/07 17:13:51;;;;;;;7.55;3.25;;;19.50;1.00;;;;;;20796217;28;20545;-39
2023/06/07 17:24:14;;;;;;;5.57;2.35;;;19.30;1.00;;;;;;20795666;28;20512;-39
2023/06/07 17:34:36;;;;;;;7.93;2.72;;;19.20;1.00;;;;;;20789470;28;20068;-39
2023/06/07 17:44:57;;;;;;;7.70;3.10;;;19.00;1.00;;;;;;20809288;28;20048;-40
2023/06/07 17:55:19;;;;;;;6.13;3.22;;;18.90;1.00;;;;;;20774839;28;20135;-40
2023/06/07 18:05:41;;;;;;;5.13;2.80;;;18.70;1.00;;;;;;20784435;28;20044;-40
2023/06/07 18:16:02;;;;;;;12.35;3.60;;;18.60;1.00;;;;;;20802529;28;20606;-40
2023/06/07 18:26:23;;;;;;;6.70;2.95;;;18.50;1.00;;;;;;20815644;28;20331;-40
2023/06/07 18:36:48;;;;;;;7.57;2.80;;;18.30;1.00;;;;;;20817591;28;20107;-40
2023/06/07 18:47:09;;;;;;;7.15;3.15;;;18.10;1.00;;;;;;20827341;28;20052;-40
2023/06/07 18:57:31;;;;;;;14.35;3.40;;;18.00;1.00;;;;;;20804818;28;20344;-40
2023/06/07 19:07:52;;;;;;;9.20;4.15;;;17.90;1.00;;;;;;20785829;28;20163;-39
2023/06/07 19:18:13;;;;;;;8.18;3.75;;;17.60;1.00;;;;;;20800767;28;20044;-40
2023/06/07 19:28:35;;;;;;;9.18;2.78;;;17.40;1.00;;;;;;20807918;28;20045;-40
2023/06/07 19:38:57;;;;;;;6.35;3.13;;;17.20;1.00;;;;;;20802192;28;20132;-40
2023/06/07 19:49:18;;;;;;;8.73;2.92;;;17.10;1.00;;;;;;20813856;28;20156;-39
2023/06/07 19:59:39;;;;;;;7.05;2.50;;;17.00;1.00;;;;;;20830022;28;20072;-40
2023/06/07 20:10:04;;;;;;;11.27;2.97;;;16.70;1.00;;;;;;20814944;28;20204;-39
2023/06/07 20:20:25;;;;;;;6.05;2.88;;;16.60;1.00;;;;;;20794608;28;20705;-40
2023/06/07 20:30:47;;;;;;;7.88;3.00;;;16.50;1.00;;;;;;20804469;28;20084;-40
2023/06/07 20:41:09;;;;;;;9.43;3.72;;;16.30;1.00;;;;;;20802862;28;20044;-40
2023/06/07 20:51:31;;;;;;;6.90;3.15;;;16.30;1.00;;;;;;20805868;28;20496;-40
2023/06/07 21:01:55;;;;;;;6.13;2.70;;;16.10;1.00;;;;;;20790693;28;20080;-40
2023/06/07 21:12:17;;;;;;;6.50;2.95;;;16.00;1.00;;;;;;20804785;28;20509;-40
2023/06/07 21:22:38;;;;;;;14.65;4.45;;;15.90;1.00;;;;;;20792101;28;20244;-40
2023/06/07 21:33:02;;;;;;;8.85;3.20;;;15.90;1.00;;;;;;20804932;28;20095;-40
2023/06/07 21:43:23;;;;;;;8.70;2.90;;;15.70;1.00;;;;;;20801274;28;20552;-40
2023/06/07 21:53:44;;;;;;;5.88;2.90;;;15.70;1.00;;;;;;20816888;28;20095;-41
2023/06/07 22:04:06;;;;;;;6.18;3.38;;;15.50;1.00;;;;;;20813417;28;20140;-40
2023/06/07 22:14:27;;;;;;;7.10;3.50;;;15.50;1.00;;;;;;20815301;28;20183;-41
2023/06/07 22:24:49;;;;;;;7.47;3.20;;;15.40;1.00;;;;;;20833395;28;20033;-40
2023/06/07 22:35:11;;;;;;;10.70;4.25;;;15.30;1.00;;;;;;20814933;28;20059;-40
2023/06/07 22:45:32;;;;;;;6.72;3.13;;;15.20;1.00;;;;;;20811721;28;20095;-40
2023/06/07 22:55:53;;;;;;;10.32;4.95;;;15.10;1.00;;;;;;20828664;28;20083;-40
2023/06/07 23:06:17;;;;;;;8.68;3.72;;;14.90;1.00;;;;;;20807435;28;20216;-40
2023/06/07 23:16:38;;;;;;;16.15;4.80;;;14.90;1.00;;;;;;20809200;28;20835;-40
2023/06/07 23:27:01;;;;;;;7.28;3.13;;;14.80;1.00;;;;;;20827847;28;20037;-41
2023/06/07 23:37:22;;;;;;;8.45;3.38;;;14.70;1.00;;;;;;20818779;28;20121;-40
2023/06/07 23:47:44;;;;;;;10.00;3.58;;;14.60;1.00;;;;;;20814481;28;20079;-40
2023/06/07 23:58:06;;;;;;;7.13;3.30;;;14.50;1.00;;;;;;20810383;28;20068;-41
